createdAt,value
2024-02-04T00:01:13.448Z,2.33
2024-02-04T00:04:27.048Z,1.80
2024-02-04T00:07:36.870Z,2.20
2024-02-04T00:10:47.667Z,1.70
2024-02-04T00:13:57.110Z,2.25
2024-02-04T00:17:10.128Z,2.22
2024-02-04T00:20:25.833Z,2.08
2024-02-04T00:23:37.329Z,1.87
2024-02-04T00:26:48.664Z,2.15
2024-02-04T00:30:00.800Z,1.42
2024-02-04T00:33:11.759Z,1.62
2024-02-04T00:36:22.791Z,2.40
2024-02-04T00:39:32.971Z,1.27
2024-02-04T00:42:43.854Z,2.08
2024-02-04T00:46:00.272Z,1.67
2024-02-04T00:49:14.730Z,1.80
2024-02-04T00:52:25.725Z,1.22
2024-02-04T00:55:38.146Z,1.95
2024-02-04T00:58:49.328Z,2.05
2024-02-04T01:02:00.158Z,1.42
2024-02-04T01:05:14.235Z,1.80
2024-02-04T01:08:25.564Z,1.80
2024-02-04T01:11:38.851Z,1.10
2024-02-04T01:14:50.864Z,1.27
2024-02-04T01:18:03.146Z,1.82
2024-02-04T01:21:15.980Z,1.73
2024-02-04T01:24:27.486Z,1.30
2024-02-04T01:27:36.939Z,1.45
2024-02-04T01:30:52.482Z,1.70
2024-02-04T01:34:03.145Z,1.42
2024-02-04T01:37:16.164Z,1.75
2024-02-04T01:40:28.864Z,1.60
2024-02-04T01:43:40.031Z,1.82
2024-02-04T01:46:54.060Z,1.77
2024-02-04T01:50:04.925Z,1.50
2024-02-04T01:53:20.284Z,1.90
2024-02-04T01:56:31.863Z,1.87
2024-02-04T01:59:40.412Z,2.05
2024-02-04T02:02:53.241Z,1.95
2024-02-04T02:06:04.319Z,1.32
2024-02-04T02:09:18.162Z,1.85
2024-02-04T02:12:34.154Z,1.87
2024-02-04T02:15:49.669Z,2.00
2024-02-04T02:19:06.942Z,1.70
2024-02-04T02:22:23.694Z,1.50
2024-02-04T02:25:34.852Z,1.37
2024-02-04T02:28:46.659Z,1.67
2024-02-04T02:31:59.711Z,1.72
2024-02-04T02:35:09.839Z,1.80
2024-02-04T02:38:22.182Z,1.70
2024-02-04T02:41:37.253Z,2.20
2024-02-04T02:44:46.801Z,1.60
2024-02-04T02:47:59.768Z,1.77
2024-02-04T02:51:12.476Z,1.50
2024-02-04T02:54:24.797Z,1.32
2024-02-04T02:57:36.620Z,1.67
2024-02-04T03:00:50.765Z,2.12
2024-02-04T03:04:03.469Z,1.87
2024-02-04T03:07:13.566Z,1.90
2024-02-04T03:10:25.385Z,1.57
2024-02-04T03:13:37.248Z,1.30
2024-02-04T03:16:53.528Z,2.30
2024-02-04T03:20:00.669Z,2.35
2024-02-04T03:23:11.842Z,1.57
2024-02-04T03:26:23.776Z,2.05
2024-02-04T03:29:34.191Z,1.87
2024-02-04T03:32:44.693Z,1.27
2024-02-04T03:35:56.347Z,1.87
2024-02-04T03:39:09.707Z,1.40
2024-02-04T03:42:23.965Z,2.30
2024-02-04T03:45:38.559Z,1.72
2024-02-04T03:48:49.948Z,2.20
2024-02-04T03:52:03.721Z,1.40
2024-02-04T03:55:16.061Z,2.12
2024-02-04T03:58:27.786Z,1.97
2024-02-04T04:01:45.885Z,1.62
2024-02-04T04:05:00.045Z,1.82
2024-02-04T04:08:15.585Z,1.75
2024-02-04T04:11:29.927Z,1.62
2024-02-04T04:14:41.889Z,1.62
2024-02-04T04:17:52.003Z,1.85
2024-02-04T04:21:04.422Z,1.80
2024-02-04T04:24:21.609Z,2.75
2024-02-04T04:27:32.163Z,1.90
2024-02-04T04:30:44.795Z,2.92
2024-02-04T04:33:57.916Z,1.87
2024-02-04T04:40:23.591Z,1.85
2024-02-04T04:43:37.768Z,2.00
2024-02-04T04:50:06.649Z,1.60
2024-02-04T04:53:20.207Z,2.33
2024-02-04T04:56:31.503Z,2.25
2024-02-04T04:59:42.328Z,1.85
2024-02-04T05:02:53.504Z,1.70
2024-02-04T05:06:07.911Z,2.42
2024-02-04T05:09:20.835Z,2.42
2024-02-04T05:12:30.661Z,3.00
2024-02-04T05:15:41.258Z,2.12
2024-02-04T05:18:51.855Z,2.70
2024-02-04T05:22:03.976Z,2.55
2024-02-04T05:25:19.812Z,1.60
2024-02-04T05:28:30.916Z,2.83
2024-02-04T05:31:47.153Z,3.12
2024-02-04T05:34:56.591Z,2.90
2024-02-04T05:38:07.991Z,3.30
2024-02-04T05:41:16.369Z,4.12
2024-02-04T05:44:27.740Z,2.70
2024-02-04T05:47:38.127Z,3.35
2024-02-04T05:50:48.914Z,4.05
2024-02-04T05:53:58.412Z,2.95
2024-02-04T05:57:11.087Z,3.20
2024-02-04T06:00:24.960Z,4.22
2024-02-04T06:03:37.048Z,4.40
2024-02-04T06:06:52.461Z,3.02
2024-02-04T06:10:05.548Z,4.50
2024-02-04T06:13:17.911Z,3.45
2024-02-04T06:16:30.450Z,2.60
2024-02-04T06:19:45.273Z,4.00
2024-02-04T06:22:57.876Z,3.47
2024-02-04T06:26:13.272Z,3.62
2024-02-04T06:29:26.381Z,2.90
2024-02-04T06:32:38.906Z,4.47
2024-02-04T06:35:48.702Z,3.02
2024-02-04T06:39:04.262Z,3.77
2024-02-04T06:42:18.166Z,2.75
2024-02-04T06:45:31.916Z,2.85
2024-02-04T06:48:42.338Z,2.35
2024-02-04T06:51:55.866Z,2.52
2024-02-04T06:55:08.893Z,2.30
2024-02-04T06:58:19.193Z,2.30
2024-02-04T07:01:31.372Z,3.15
2024-02-04T07:04:46.783Z,2.42
2024-02-04T07:07:58.077Z,2.65
2024-02-04T07:14:28.321Z,3.07
2024-02-04T07:17:42.091Z,3.60
2024-02-04T07:20:55.378Z,2.65
2024-02-04T07:27:15.209Z,2.87
2024-02-04T07:30:26.316Z,3.25
2024-02-04T07:33:36.479Z,3.27
2024-02-04T07:36:49.969Z,2.62
2024-02-04T07:40:05.904Z,3.17
2024-02-04T07:43:14.421Z,2.42
2024-02-04T07:46:26.616Z,2.42
2024-02-04T07:49:37.933Z,2.85
2024-02-04T07:52:51.399Z,3.67
2024-02-04T07:56:06.971Z,3.20
2024-02-04T07:59:19.903Z,2.80
2024-02-04T08:02:32.163Z,2.58
2024-02-04T08:05:44.317Z,2.55
2024-02-04T08:08:57.528Z,2.40
2024-02-04T08:15:19.981Z,2.05
2024-02-04T08:21:39.955Z,2.00
2024-02-04T08:24:53.205Z,2.40
2024-02-04T08:31:12.469Z,2.30
2024-02-04T08:34:22.322Z,2.70
2024-02-04T08:37:37.413Z,2.27
2024-02-04T08:40:48.798Z,1.95
2024-02-04T08:44:02.397Z,2.67
2024-02-04T08:47:13.837Z,2.62
2024-02-04T08:50:26.442Z,2.12
2024-02-04T08:53:38.418Z,2.85
2024-02-04T08:56:49.833Z,2.60
2024-02-04T09:00:04.013Z,2.67
2024-02-04T09:03:16.058Z,2.52
2024-02-04T09:06:28.941Z,3.25
2024-02-04T09:09:41.268Z,2.50
2024-02-04T09:12:53.268Z,2.67
2024-02-04T09:16:04.649Z,3.25
2024-02-04T09:19:16.462Z,2.40
2024-02-04T09:22:28.750Z,2.90
2024-02-04T09:25:43.835Z,2.93
2024-02-04T09:28:55.752Z,2.65
2024-02-04T09:32:08.981Z,2.42
2024-02-04T09:38:34.489Z,2.00
2024-02-04T09:41:46.496Z,1.85
2024-02-04T09:44:57.324Z,1.90
2024-02-04T09:48:08.251Z,1.62
2024-02-04T09:51:22.202Z,2.35
2024-02-04T09:54:33.213Z,2.52
2024-02-04T09:57:45.222Z,1.70
2024-02-04T10:00:59.324Z,2.00
2024-02-04T10:04:12.649Z,1.65
2024-02-04T10:10:36.190Z,2.22
2024-02-04T10:13:58.332Z,1.55
2024-02-04T10:17:10.899Z,2.50
2024-02-04T10:20:24.056Z,2.02
2024-02-04T10:23:34.325Z,2.02
2024-02-04T10:26:46.404Z,1.52
2024-02-04T10:29:57.769Z,2.22
2024-02-04T10:33:12.467Z,2.00
2024-02-04T10:36:23.321Z,1.65
2024-02-04T10:39:35.458Z,1.95
2024-02-04T10:42:48.335Z,2.35
2024-02-04T10:46:00.344Z,1.85
2024-02-04T10:49:14.343Z,1.92
2024-02-04T10:55:43.675Z,2.10
2024-02-04T10:58:53.952Z,1.40
2024-02-04T11:02:08.378Z,2.10
2024-02-04T11:05:18.016Z,2.62
2024-02-04T11:08:32.382Z,2.02
2024-02-04T11:11:46.192Z,1.52
2024-02-04T11:14:58.623Z,2.25
2024-02-04T11:18:51.358Z,1.10
2024-02-04T11:22:17.840Z,1.62
2024-02-04T11:26:04.502Z,1.52
2024-02-04T11:29:15.660Z,2.50
2024-02-04T11:32:26.138Z,1.40
2024-02-04T11:35:40.744Z,1.72
2024-02-04T11:38:55.874Z,1.87
2024-02-04T11:42:11.153Z,1.30
2024-02-04T11:45:25.743Z,1.42
2024-02-04T11:48:39.448Z,1.65
2024-02-04T11:51:52.912Z,1.35
2024-02-04T11:55:03.303Z,1.32
2024-02-04T11:58:16.018Z,1.50
2024-02-04T12:01:33.084Z,1.57
2024-02-04T12:04:46.940Z,1.25
2024-02-04T12:07:58.741Z,1.80
2024-02-04T12:11:11.094Z,1.57
2024-02-04T12:14:24.788Z,1.20
2024-02-04T12:17:36.790Z,1.32
2024-02-04T12:20:49.290Z,0.95
2024-02-04T12:24:00.162Z,1.53
2024-02-04T12:27:15.045Z,1.07
2024-02-04T12:30:27.867Z,1.45
2024-02-04T12:33:40.269Z,1.05
2024-02-04T12:36:53.217Z,1.05
2024-02-04T12:40:07.566Z,1.10
2024-02-04T12:43:18.318Z,1.27
2024-02-04T12:46:31.124Z,0.80
2024-02-04T12:49:42.647Z,0.60
2024-02-04T12:52:55.939Z,0.98
2024-02-04T12:56:08.036Z,0.65
2024-02-04T12:59:21.255Z,1.22
2024-02-04T13:05:45.638Z,1.12
2024-02-04T13:09:01.313Z,0.98
2024-02-04T13:12:21.174Z,1.00
2024-02-04T13:15:33.278Z,1.15
2024-02-04T13:18:45.583Z,1.60
2024-02-04T13:21:57.119Z,1.30
2024-02-04T13:25:07.620Z,1.02
2024-02-04T13:28:21.830Z,1.57
2024-02-04T13:31:33.269Z,1.20
2024-02-04T13:34:44.402Z,1.20
2024-02-04T13:37:57.602Z,1.50
2024-02-04T13:44:20.865Z,1.22
2024-02-04T13:47:35.159Z,0.72
2024-02-04T13:50:47.633Z,1.30
2024-02-04T13:53:57.757Z,1.17
2024-02-04T13:57:09.323Z,0.93
2024-02-04T14:00:22.325Z,0.90
2024-02-04T14:03:35.513Z,1.07
2024-02-04T14:09:58.277Z,0.93
2024-02-04T14:13:11.180Z,0.80
2024-02-04T14:16:20.646Z,0.90
2024-02-04T14:19:32.827Z,1.30
2024-02-04T14:22:45.102Z,0.67
2024-02-04T14:29:07.520Z,1.00
2024-02-04T14:32:17.774Z,0.73
2024-02-04T14:35:28.119Z,0.95
2024-02-04T14:38:40.228Z,1.15
2024-02-04T14:41:55.712Z,1.20
2024-02-04T14:45:07.781Z,0.95
2024-02-04T14:48:18.323Z,1.00
2024-02-04T14:51:27.283Z,1.05
2024-02-04T14:54:35.704Z,0.93
2024-02-04T14:57:48.885Z,0.70
2024-02-04T15:04:15.691Z,1.12
2024-02-04T15:07:26.657Z,0.80
2024-02-04T15:10:40.080Z,0.80
2024-02-04T15:17:05.725Z,0.50
2024-02-04T15:20:21.518Z,1.00
2024-02-04T15:23:36.307Z,1.20
2024-02-04T15:26:49.965Z,1.17
2024-02-04T15:30:01.005Z,1.17
2024-02-04T15:33:15.185Z,0.82
2024-02-04T15:36:27.505Z,1.52
2024-02-04T15:39:36.755Z,1.00
2024-02-04T15:42:49.202Z,0.75
2024-02-04T15:45:59.999Z,0.90
2024-02-04T15:49:15.614Z,0.80
2024-02-04T15:52:25.862Z,0.65
2024-02-04T15:55:42.147Z,0.80
2024-02-04T15:59:00.709Z,0.68
2024-02-04T16:02:14.983Z,0.80
2024-02-04T16:05:30.539Z,0.72
2024-02-04T16:08:41.142Z,0.90
2024-02-04T16:11:56.589Z,0.82
2024-02-04T16:15:09.851Z,1.25
2024-02-04T16:21:34.908Z,1.00
2024-02-04T16:24:46.827Z,1.00
2024-02-04T16:27:58.945Z,1.20
2024-02-04T16:31:08.598Z,0.85
2024-02-04T16:34:19.788Z,0.72
2024-02-04T16:37:34.440Z,0.62
2024-02-04T16:40:48.081Z,0.80
2024-02-04T16:43:59.034Z,0.60
2024-02-04T16:47:10.837Z,0.75
2024-02-04T16:50:26.800Z,1.10
2024-02-04T16:53:41.635Z,1.20
2024-02-04T16:56:52.786Z,1.00
2024-02-04T17:00:08.143Z,0.85
2024-02-04T17:03:22.005Z,1.17
2024-02-04T17:06:34.746Z,0.80
2024-02-04T17:09:46.419Z,1.00
2024-02-04T17:12:58.588Z,1.00
2024-02-04T17:16:09.201Z,0.90
2024-02-04T17:19:27.514Z,0.80
2024-02-04T17:22:39.653Z,0.90
2024-02-04T17:25:52.798Z,0.88
2024-02-04T17:32:15.681Z,0.98
2024-02-04T17:35:30.776Z,1.00
2024-02-04T17:38:42.950Z,0.98
2024-02-04T17:41:55.996Z,0.93
2024-02-04T17:45:07.728Z,0.72
2024-02-04T17:48:20.277Z,0.78
2024-02-04T17:51:32.883Z,0.97
2024-02-04T17:54:42.878Z,0.70
2024-02-04T17:57:52.270Z,1.05
2024-02-04T18:01:04.261Z,0.78
2024-02-04T18:04:13.624Z,0.70
2024-02-04T18:07:25.896Z,0.53
2024-02-04T18:10:39.634Z,0.60
2024-02-04T18:13:53.871Z,0.70
2024-02-04T18:17:08.647Z,1.00
2024-02-04T18:20:26.426Z,0.75
2024-02-04T18:23:40.876Z,0.95
2024-02-04T18:26:52.995Z,0.82
2024-02-04T18:30:04.392Z,1.05
2024-02-04T18:33:19.302Z,0.70
2024-02-04T18:36:32.651Z,0.78
2024-02-04T18:39:44.416Z,1.05
2024-02-04T18:42:54.875Z,0.80
2024-02-04T18:46:11.599Z,0.80
2024-02-04T18:49:22.900Z,1.35
2024-02-04T18:52:37.063Z,1.00
2024-02-04T18:55:52.719Z,0.80
2024-02-04T18:59:03.786Z,0.85
2024-02-04T19:02:15.434Z,0.90
2024-02-04T19:05:27.891Z,1.00
2024-02-04T19:08:40.197Z,0.80
2024-02-04T19:11:54.202Z,0.73
2024-02-04T19:15:12.013Z,0.80
2024-02-04T19:18:24.721Z,0.82
2024-02-04T19:21:34.459Z,0.60
2024-02-04T19:24:46.775Z,0.93
2024-02-04T19:27:56.825Z,0.80
2024-02-04T19:31:06.535Z,1.07
2024-02-04T19:34:16.174Z,1.10
2024-02-04T19:37:27.893Z,0.90
2024-02-04T19:40:39.616Z,1.10
2024-02-04T19:43:49.753Z,0.70
2024-02-04T19:47:04.497Z,0.78
2024-02-04T19:50:20.783Z,0.62
2024-02-04T19:53:35.958Z,0.80
2024-02-04T19:56:49.167Z,0.88
2024-02-04T20:03:10.325Z,1.10
2024-02-04T20:09:36.037Z,1.20
2024-02-04T20:12:48.345Z,1.05
2024-02-04T20:16:02.248Z,1.07
2024-02-04T20:19:17.477Z,0.70
2024-02-04T20:22:27.479Z,0.80
2024-02-04T20:25:40.229Z,0.93
2024-02-04T20:28:53.446Z,1.20
2024-02-04T20:35:16.628Z,1.30
2024-02-04T20:38:27.645Z,0.93
2024-02-04T20:41:38.932Z,0.68
2024-02-04T20:44:54.241Z,1.10
2024-02-04T20:48:07.268Z,0.95
2024-02-04T20:51:24.114Z,0.62
2024-02-04T20:54:37.127Z,0.78
2024-02-04T20:57:51.285Z,1.10
2024-02-04T21:01:02.532Z,0.88
2024-02-04T21:04:13.145Z,1.05
2024-02-04T21:10:41.917Z,0.80
2024-02-04T21:13:53.097Z,0.93
2024-02-04T21:17:07.666Z,0.70
2024-02-04T21:20:20.178Z,0.88
2024-02-04T21:23:33.101Z,0.90
2024-02-04T21:26:44.996Z,1.10
2024-02-04T21:29:57.540Z,0.98
2024-02-04T21:33:09.897Z,1.07
2024-02-04T21:36:22.841Z,0.70
2024-02-04T21:39:35.540Z,0.78
2024-02-04T21:42:45.743Z,1.00
2024-02-04T21:45:55.645Z,1.00
2024-02-04T21:49:10.111Z,0.93
2024-02-04T21:52:21.273Z,1.02
2024-02-04T21:55:32.472Z,0.75
2024-02-04T21:58:44.666Z,1.02
2024-02-04T22:01:56.541Z,0.70
2024-02-04T22:05:07.304Z,1.20
2024-02-04T22:08:19.389Z,1.12
2024-02-04T22:11:30.378Z,1.52
2024-02-04T22:14:40.841Z,0.98
2024-02-04T22:17:59.114Z,1.20
2024-02-04T22:21:09.386Z,1.52
2024-02-04T22:24:22.358Z,1.07
2024-02-04T22:27:36.238Z,1.20
2024-02-04T22:30:49.587Z,2.20
2024-02-04T22:34:00.980Z,1.00
2024-02-04T22:37:15.245Z,2.22
2024-02-04T22:40:29.698Z,2.50
2024-02-04T22:46:56.788Z,4.57
2024-02-04T22:50:06.480Z,3.92
2024-02-04T22:53:18.246Z,5.00
2024-02-04T22:56:31.069Z,4.62
2024-02-04T22:59:44.146Z,3.85
2024-02-04T23:06:06.814Z,3.15
2024-02-04T23:09:19.908Z,4.40
2024-02-04T23:12:34.895Z,3.20
2024-02-04T23:15:50.209Z,2.67
2024-02-04T23:18:58.399Z,1.77
2024-02-04T23:22:10.804Z,2.85
2024-02-04T23:25:27.161Z,2.17
2024-02-04T23:28:37.305Z,2.55
2024-02-04T23:31:49.773Z,2.25
2024-02-04T23:35:03.727Z,2.20
2024-02-04T23:38:15.856Z,2.47
2024-02-04T23:41:26.207Z,1.77
2024-02-04T23:44:36.437Z,2.40
2024-02-04T23:47:47.691Z,1.80
2024-02-04T23:50:59.915Z,1.70
2024-02-04T23:54:12.815Z,2.00
2024-02-04T23:57:25.963Z,2.00
